Time;durP1;ratioP1;P1;durP2;ratioP2;P2;SDS_P1;SDS_P2;PMS_P1;PMS_P2;Temp;Humidity;BMP_temperature;BMP_pressure;BME280_temperature;BME280_humidity;BME280_pressure;Samples;Min_cycle;Max_cycle;Signal;HPM_P1;HPM_P2
2022/08/29 00:00:27;;;;;;;6.32;1.67;;;;;;;27.82;48.73;98728.59;2101682;28;20048;-45
2022/08/29 00:01:29;;;;;;;1.67;1.20;;;;;;;27.81;48.84;98734.34;2096284;28;20058;-45
2022/08/29 00:02:30;;;;;;;1.80;1.58;;;;;;;27.80;48.91;98730.78;2100662;28;20054;-47
2022/08/29 00:03:32;;;;;;;2.95;1.50;;;;;;;27.77;48.83;98728.53;2104460;28;20417;-47
2022/08/29 00:04:33;;;;;;;1.88;1.10;;;;;;;27.80;48.61;98730.78;2105303;28;20750;-44
2022/08/29 00:05:37;;;;;;;2.88;1.50;;;;;;;27.82;48.87;98731.34;2100976;28;20062;-44
2022/08/29 00:06:38;;;;;;;1.95;1.40;;;;;;;27.80;48.74;98732.66;2100723;28;20056;-48
2022/08/29 00:07:40;;;;;;;2.95;1.88;;;;;;;27.79;48.62;98731.84;2095019;28;20044;-48
2022/08/29 00:08:42;;;;;;;1.90;1.25;;;;;;;27.81;48.96;98735.16;2094589;28;20045;-47
2022/08/29 00:09:44;;;;;;;3.70;1.52;;;;;;;27.79;48.83;98728.28;2094640;28;20101;-44
2022/08/29 00:10:45;;;;;;;1.73;1.10;;;;;;;27.78;48.68;98730.19;2095396;28;20971;-48
2022/08/29 00:11:47;;;;;;;1.55;1.45;;;;;;;27.77;48.69;98728.53;2095446;28;20052;-51
2022/08/29 00:12:48;;;;;;;2.83;1.70;;;;;;;27.78;49.03;98730.19;2091557;28;20118;-49
2022/08/29 00:13:51;;;;;;;2.13;1.05;;;;;;;27.78;49.05;98735.66;2090926;28;20063;-47
2022/08/29 00:14:51;;;;;;;2.90;1.17;;;;;;;27.76;48.95;98724.19;2095656;28;20077;-45
2022/08/29 00:15:53;;;;;;;1.52;1.42;;;;;;;27.77;48.76;98725.81;2096310;28;20048;-46
2022/08/29 00:16:54;;;;;;;2.05;1.17;;;;;;;27.78;48.72;98723.94;2095925;28;20058;-44
2022/08/29 00:17:56;;;;;;;1.50;1.20;;;;;;;27.77;48.76;98722.25;2094962;28;20413;-47
2022/08/29 00:18:57;;;;;;;1.65;1.25;;;;;;;27.78;48.99;98715.75;2094982;28;20055;-44
2022/08/29 00:19:59;;;;;;;1.85;1.15;;;;;;;27.79;48.56;98715.50;2097825;28;20043;-48
2022/08/29 00:21:01;;;;;;;2.97;1.40;;;;;;;27.77;48.67;98720.34;2096067;28;20051;-49
2022/08/29 00:22:03;;;;;;;1.27;1.17;;;;;;;27.76;49.06;98713.28;2102289;28;20685;-50
2022/08/29 00:23:05;;;;;;;2.38;1.45;;;;;;;27.75;48.72;98722.53;2101787;28;20453;-49
2022/08/29 00:24:09;;;;;;;3.08;1.60;;;;;;;27.75;48.86;98716.25;2098837;28;20064;-45
2022/08/29 00:25:11;;;;;;;3.65;1.13;;;;;;;27.75;48.70;98719.81;2092475;28;20047;-44
2022/08/29 00:26:13;;;;;;;2.83;1.45;;;;;;;27.74;48.88;98718.16;2099269;28;20509;-47
2022/08/29 00:27:14;;;;;;;1.50;1.40;;;;;;;27.74;48.63;98722.78;2096413;28;20043;-48
2022/08/29 00:28:16;;;;;;;1.85;1.13;;;;;;;27.75;48.86;98717.09;2101236;28;20052;-45
2022/08/29 00:29:17;;;;;;;2.10;1.17;;;;;;;27.73;48.87;98719.25;2097972;27;20803;-46
2022/08/29 00:30:21;;;;;;;2.38;1.65;;;;;;;27.73;49.00;98716.53;2099184;28;20059;-48
2022/08/29 00:31:21;;;;;;;3.13;1.10;;;;;;;27.74;48.81;98723.59;2103729;28;20047;-51
2022/08/29 00:32:23;;;;;;;1.65;1.48;;;;;;;27.74;48.83;98722.78;2097278;28;20508;-44
2022/08/29 00:33:24;;;;;;;2.10;1.33;;;;;;;27.74;48.99;98718.16;2094841;28;20044;-48
2022/08/29 00:34:26;;;;;;;3.67;1.50;;;;;;;27.71;48.68;98715.97;2096720;28;20238;-50
2022/08/29 00:35:30;;;;;;;1.83;1.30;;;;;;;27.73;48.71;98716.53;2094662;28;20677;-49
2022/08/29 00:36:33;;;;;;;1.70;1.23;;;;;;;27.75;48.78;98717.09;2105211;28;20101;-48
2022/08/29 00:37:34;;;;;;;2.83;1.08;;;;;;;27.75;48.58;98722.53;2102009;28;20051;-49
2022/08/29 00:38:36;;;;;;;2.95;1.55;;;;;;;27.73;48.73;98721.97;2093504;28;20512;-47
2022/08/29 00:39:39;;;;;;;1.75;1.45;;;;;;;27.74;48.81;98720.88;2094030;28;20052;-45
2022/08/29 00:40:43;;;;;;;3.97;1.58;;;;;;;27.77;48.68;98730.44;2102749;28;20056;-49
2022/08/29 00:41:44;;;;;;;2.13;1.30;;;;;;;27.74;48.89;98728.25;2098128;27;20055;-47
2022/08/29 00:42:46;;;;;;;1.35;1.25;;;;;;;27.74;48.66;98729.06;2095352;28;20170;-46
2022/08/29 00:43:47;;;;;;;3.90;1.45;;;;;;;27.73;48.82;98721.97;2089939;28;20370;-47
2022/08/29 00:44:50;;;;;;;2.15;1.08;;;;;;;27.73;48.75;98723.88;2097527;28;20063;-46
2022/08/29 00:46:01;;;;;;;2.75;1.50;;;;;;;27.72;48.72;98735.84;2100104;27;20117;-46
2022/08/29 00:47:09;;;;;;;5.05;1.40;;;;;;;27.71;48.58;98732.31;2100391;28;20048;-50
2022/08/29 00:48:14;;;;;;;1.58;1.45;;;;;;;27.71;48.86;98732.31;2098760;28;20048;-48
2022/08/29 00:49:26;;;;;;;1.60;1.38;;;;;;;27.70;48.53;98733.41;2092094;28;20351;-50
2022/08/29 00:50:34;;;;;;;3.08;1.70;;;;;;;27.71;48.65;98735.03;2099416;27;20066;-46
2022/08/29 00:51:35;;;;;;;2.60;1.25;;;;;;;27.70;48.65;98736.13;2096098;28;20062;-48
2022/08/29 00:52:40;;;;;;;1.45;1.35;;;;;;;27.71;48.65;98723.31;2098110;27;20040;-46
2022/08/29 00:53:44;;;;;;;3.15;2.10;;;;;;;27.70;48.74;98732.59;2094113;28;20860;-50
2022/08/29 00:54:51;;;;;;;1.40;1.08;;;;;;;27.71;48.55;98732.31;2095944;28;21107;-49
2022/08/29 00:55:51;;;;;;;1.40;1.30;;;;;;;27.69;48.48;98734.47;2101274;28;20066;-44
2022/08/29 00:56:54;;;;;;;2.83;1.20;;;;;;;27.71;48.69;98737.75;2096648;28;20055;-46
2022/08/29 00:58:01;;;;;;;1.52;1.17;;;;;;;27.71;48.84;98734.22;2098136;27;20060;-47
2022/08/29 00:59:08;;;;;;;4.90;1.48;;;;;;;27.69;48.59;98731.75;2095429;28;20058;-49
2022/08/29 01:00:11;;;;;;;1.10;1.00;;;;;;;27.69;48.46;98742.63;2098518;28;20063;-46
2022/08/29 01:01:13;;;;;;;5.03;1.60;;;;;;;27.67;48.71;98735.84;2091891;27;20986;-49
2022/08/29 01:02:14;;;;;;;2.13;1.20;;;;;;;27.67;48.64;98735.84;2105155;27;20047;-47
2022/08/29 01:03:16;;;;;;;3.58;1.35;;;;;;;27.67;48.57;98733.94;2098215;27;20058;-49
2022/08/29 01:04:17;;;;;;;2.63;1.25;;;;;;;27.67;48.77;98739.38;2095416;28;21223;-46
2022/08/29 01:05:19;;;;;;;1.27;1.13;;;;;;;27.69;48.22;98739.91;2097815;28;20067;-49
2022/08/29 01:06:21;;;;;;;1.90;1.20;;;;;;;27.68;48.66;98743.72;2095832;28;20044;-50
2022/08/29 01:07:23;;;;;;;1.63;1.42;;;;;;;27.68;48.50;98741.00;2099071;28;20047;-50
2022/08/29 01:08:24;;;;;;;3.03;1.48;;;;;;;27.67;48.83;98739.38;2096447;27;20048;-49
2022/08/29 01:09:28;;;;;;;1.27;1.00;;;;;;;27.66;48.56;98748.63;2096683;28;20176;-45
2022/08/29 01:13:11;;;;;;;2.10;1.25;;;;;;;27.61;48.73;98743.16;2096953;27;20068;-45
2022/08/29 01:14:13;;;;;;;5.30;1.50;;;;;;;27.62;48.71;98742.88;2098646;28;20131;-45
2022/08/29 01:15:15;;;;;;;1.70;1.60;;;;;;;27.64;48.48;98750.81;2095817;28;20058;-49
2022/08/29 01:16:19;;;;;;;3.00;1.48;;;;;;;27.65;48.40;98746.97;2096793;27;20119;-44
2022/08/29 01:17:24;;;;;;;1.40;1.30;;;;;;;27.66;48.51;98753.25;2096579;27;20040;-47
2022/08/29 01:18:28;;;;;;;2.20;1.45;;;;;;;27.65;48.47;98748.91;2097815;28;20044;-47
2022/08/29 01:19:39;;;;;;;1.80;1.20;;;;;;;27.60;48.74;98753.19;2097502;27;20266;-47
2022/08/29 01:20:49;;;;;;;5.43;1.13;;;;;;;27.62;48.54;98758.41;2092404;27;20047;-47
2022/08/29 01:21:59;;;;;;;2.03;1.10;;;;;;;27.60;48.72;98752.38;2102397;28;20701;-45
2022/08/29 01:23:12;;;;;;;2.40;1.00;;;;;;;27.60;48.69;98750.47;2101500;28;20048;-47
2022/08/29 01:24:30;;;;;;;2.10;1.30;;;;;;;27.62;48.39;98752.97;2094017;28;20058;-51
2022/08/29 01:25:36;;;;;;;1.67;1.58;;;;;;;27.62;48.59;98752.97;2096484;28;20052;-44
2022/08/29 01:26:37;;;;;;;4.13;1.60;;;;;;;27.62;48.45;98750.22;2104128;28;20040;-51
2022/08/29 01:27:42;;;;;;;1.42;1.27;;;;;;;27.65;48.56;98752.44;2100327;27;20105;-49
2022/08/29 01:28:48;;;;;;;2.53;1.20;;;;;;;27.63;48.57;98751.88;2099546;28;20055;-46
2022/08/29 01:29:50;;;;;;;2.28;1.60;;;;;;;27.63;48.43;98754.59;2096909;27;20108;-50
2022/08/29 01:31:00;;;;;;;1.10;1.00;;;;;;;27.61;48.57;98759.50;2098081;27;20048;-48
2022/08/29 01:32:02;;;;;;;4.47;1.55;;;;;;;27.61;49.01;98759.50;2096551;28;20071;-45
2022/08/29 01:33:03;;;;;;;2.90;2.10;;;;;;;27.60;48.45;98755.94;2095816;27;20064;-48
2022/08/29 01:34:05;;;;;;;1.58;1.48;;;;;;;27.60;48.59;98761.38;2096091;28;20120;-49
2022/08/29 01:35:07;;;;;;;2.78;1.20;;;;;;;27.60;48.94;98764.09;2096546;27;20124;-49
2022/08/29 01:36:11;;;;;;;1.73;1.13;;;;;;;27.60;48.83;98758.66;2097458;28;20044;-48
2022/08/29 01:37:14;;;;;;;2.08;1.73;;;;;;;27.61;48.50;98765.75;2097902;27;20056;-47
2022/08/29 01:38:26;;;;;;;3.85;1.83;;;;;;;27.59;48.46;98765.19;2097950;28;20060;-44
2022/08/29 01:39:31;;;;;;;1.63;1.27;;;;;;;27.58;48.74;98758.13;2094104;28;20089;-48
2022/08/29 01:40:35;;;;;;;4.35;1.63;;;;;;;27.61;48.64;98767.66;2098000;28;20648;-50
2022/08/29 01:41:36;;;;;;;3.40;1.10;;;;;;;27.60;48.70;98760.56;2099077;27;20052;-48
2022/08/29 01:42:38;;;;;;;1.52;1.35;;;;;;;27.61;48.65;98756.78;2101009;28;20426;-48
2022/08/29 01:43:41;;;;;;;2.22;1.38;;;;;;;27.61;48.59;98756.78;2099283;28;20055;-49
2022/08/29 01:44:48;;;;;;;3.22;1.25;;;;;;;27.63;48.64;98754.59;2084833;27;20191;-46
2022/08/29 01:45:50;;;;;;;1.50;0.80;;;;;;;27.60;48.42;98753.19;2094401;28;20067;-47
2022/08/29 01:46:55;;;;;;;1.27;1.17;;;;;;;27.61;48.64;98756.78;2095525;27;20620;-48
2022/08/29 01:47:56;;;;;;;2.40;1.83;;;;;;;27.62;48.59;98759.22;2091193;28;20144;-49
2022/08/29 01:49:00;;;;;;;2.17;1.55;;;;;;;27.62;48.41;98750.22;2090190;28;20620;-47
2022/08/29 01:50:02;;;;;;;1.23;1.05;;;;;;;27.61;48.52;98754.06;2086414;28;20036;-49
2022/08/29 01:51:04;;;;;;;2.95;1.38;;;;;;;27.60;48.43;98755.13;2086651;28;20051;-49
2022/08/29 01:52:05;;;;;;;4.05;1.50;;;;;;;27.59;48.67;98756.22;2088426;28;20056;-47
2022/08/29 01:53:07;;;;;;;3.50;1.10;;;;;;;27.59;48.58;98753.47;2086859;28;20505;-48
2022/08/29 01:54:10;;;;;;;1.83;0.95;;;;;;;27.58;48.64;98751.81;2086822;28;20060;-52
2022/08/29 01:55:13;;;;;;;5.03;1.77;;;;;;;27.58;48.62;98758.13;2087094;28;21389;-48
2022/08/29 01:56:16;;;;;;;2.30;1.38;;;;;;;27.57;48.50;98755.63;2096828;27;20044;-49
2022/08/29 01:57:18;;;;;;;2.65;1.27;;;;;;;27.55;48.55;98755.91;2105787;28;20054;-49
2022/08/29 01:58:19;;;;;;;1.83;1.25;;;;;;;27.56;48.39;98752.09;2099851;28;20063;-46
2022/08/29 01:59:25;;;;;;;1.42;1.13;;;;;;;27.57;48.59;98751.00;2097102;28;20113;-49
2022/08/29 02:00:27;;;;;;;2.03;1.25;;;;;;;27.55;48.57;98752.34;2099958;27;20051;-46
2022/08/29 02:01:32;;;;;;;2.17;1.20;;;;;;;27.53;48.78;98747.16;2100753;27;20047;-48
2022/08/29 02:02:33;;;;;;;2.00;1.50;;;;;;;27.52;48.79;98748.22;2099698;27;20549;-47
2022/08/29 02:03:35;;;;;;;1.45;1.02;;;;;;;27.54;48.48;98756.16;2099172;28;20390;-46
2022/08/29 02:04:39;;;;;;;3.92;1.40;;;;;;;27.54;48.85;98756.16;2095183;28;20044;-49
2022/08/29 02:05:40;;;;;;;2.33;1.27;;;;;;;27.52;48.67;98750.94;2098698;28;20044;-47
2022/08/29 02:06:44;;;;;;;1.35;1.15;;;;;;;27.54;48.39;98751.53;2094294;28;20137;-50
2022/08/29 02:07:45;;;;;;;2.15;1.38;;;;;;;27.54;48.25;98745.25;2095840;27;20063;-46
2022/08/29 02:08:47;;;;;;;3.05;2.10;;;;;;;27.55;48.20;98755.91;2102498;27;20086;-46
2022/08/29 02:09:48;;;;;;;1.70;1.27;;;;;;;27.54;48.45;98756.16;2097352;28;22410;-48
2022/08/29 02:10:52;;;;;;;1.35;1.25;;;;;;;27.54;48.57;98750.72;2095088;27;20056;-48
2022/08/29 02:11:53;;;;;;;1.38;1.27;;;;;;;27.54;48.74;98753.44;2090892;27;20044;-47
2022/08/29 02:12:56;;;;;;;2.42;1.48;;;;;;;27.54;48.81;98747.97;2101823;28;20050;-46
2022/08/29 02:13:58;;;;;;;3.60;1.30;;;;;;;27.52;48.64;98748.22;2099700;28;20079;-49
2022/08/29 02:15:00;;;;;;;0.80;0.80;;;;;;;27.54;48.63;98753.44;2095939;28;20077;-48
2022/08/29 02:16:00;;;;;;;1.52;1.30;;;;;;;27.52;48.53;98752.88;2095024;27;20047;-47
2022/08/29 02:17:03;;;;;;;2.22;1.13;;;;;;;27.52;48.40;98742.78;2093809;28;20055;-49
2022/08/29 02:18:04;;;;;;;3.75;1.50;;;;;;;27.51;48.74;98753.94;2093660;28;20051;-48
2022/08/29 02:19:06;;;;;;;1.40;1.30;;;;;;;27.53;48.29;98749.91;2096742;28;20133;-47
2022/08/29 02:20:08;;;;;;;1.60;1.23;;;;;;;27.52;48.25;98753.69;2096348;27;20052;-47
2022/08/29 02:21:11;;;;;;;1.20;1.10;;;;;;;27.53;48.47;98754.53;2089711;27;20086;-51
2022/08/29 02:22:13;;;;;;;3.42;1.60;;;;;;;27.52;48.34;98750.13;2093761;28;20056;-47
2022/08/29 02:23:14;;;;;;;4.18;1.20;;;;;;;27.52;48.51;98752.88;2092381;28;20044;-46
2022/08/29 02:24:16;;;;;;;1.83;1.40;;;;;;;27.53;48.63;98749.06;2097906;28;20056;-47
2022/08/29 02:26:39;;;;;;;1.20;1.10;;;;;;;27.47;48.77;98747.38;2092886;27;20607;-45
2022/08/29 02:27:41;;;;;;;4.03;1.30;;;;;;;27.48;48.66;98746.31;2097295;28;20055;-47
2022/08/29 02:28:43;;;;;;;3.13;1.80;;;;;;;27.48;48.76;98749.84;2096024;27;20059;-47
2022/08/29 02:29:45;;;;;;;1.30;1.20;;;;;;;27.47;48.47;98750.09;2094332;28;20058;-51
2022/08/29 02:30:48;;;;;;;2.85;1.40;;;;;;;27.46;48.62;98753.91;2099143;27;21272;-44
2022/08/29 02:31:50;;;;;;;1.45;1.35;;;;;;;27.45;48.64;98755.00;2096396;27;20044;-46
2022/08/29 02:32:51;;;;;;;1.35;1.25;;;;;;;27.47;48.39;98750.94;2097467;28;20110;-49
2022/08/29 02:33:54;;;;;;;1.00;0.98;;;;;;;27.47;48.53;98750.09;2098978;28;21105;-47
2022/08/29 02:34:55;;;;;;;1.73;0.90;;;;;;;27.48;48.41;98746.31;2097106;27;20044;-45
2022/08/29 02:35:57;;;;;;;2.05;1.67;;;;;;;27.49;48.37;98747.94;2096277;27;20136;-46
2022/08/29 02:36:58;;;;;;;2.28;1.45;;;;;;;27.48;48.70;98752.56;2095772;28;20050;-48
2022/08/29 02:38:00;;;;;;;1.88;1.00;;;;;;;27.50;48.51;98755.03;2095343;28;20074;-46
2022/08/29 02:39:01;;;;;;;2.38;1.38;;;;;;;27.49;48.66;98756.09;2100470;27;20051;-47
2022/08/29 02:40:04;;;;;;;1.75;1.33;;;;;;;27.49;48.52;98750.66;2095979;28;20048;-45
2022/08/29 02:41:05;;;;;;;1.65;1.35;;;;;;;27.48;48.47;98749.03;2095952;28;20047;-47
2022/08/29 02:42:08;;;;;;;1.52;1.10;;;;;;;27.48;48.61;98747.13;2097007;28;20054;-49
2022/08/29 02:43:09;;;;;;;3.28;1.00;;;;;;;27.48;48.60;98749.03;2097724;27;20070;-46
2022/08/29 02:44:11;;;;;;;2.22;1.58;;;;;;;27.46;48.25;98754.72;2098509;28;20043;-46
2022/08/29 02:45:13;;;;;;;2.08;1.55;;;;;;;27.48;48.23;98751.75;2098747;28;20055;-47
2022/08/29 02:46:16;;;;;;;1.58;1.33;;;;;;;27.49;48.11;98747.94;2102181;28;20082;-44
2022/08/29 02:47:17;;;;;;;2.55;1.80;;;;;;;27.47;48.24;98750.09;2098888;27;20051;-47
2022/08/29 02:48:20;;;;;;;2.25;1.50;;;;;;;27.46;48.40;98745.72;2102229;27;20123;-44
2022/08/29 02:49:21;;;;;;;2.72;1.23;;;;;;;27.45;48.56;98746.81;2097878;28;20082;-44
2022/08/29 02:50:24;;;;;;;0.90;0.90;;;;;;;27.45;48.31;98746.81;2099994;27;20040;-49
2022/08/29 02:51:27;;;;;;;1.85;1.38;;;;;;;27.45;48.47;98752.28;2101265;28;20188;-50
2022/08/29 02:52:30;;;;;;;3.28;1.50;;;;;;;27.46;48.39;98748.47;2098893;28;20110;-51
2022/08/29 02:53:31;;;;;;;2.13;1.17;;;;;;;27.46;48.40;98748.47;2095244;28;20047;-47
2022/08/29 02:54:32;;;;;;;2.00;1.23;;;;;;;27.46;48.12;98751.19;2095308;28;20089;-47
2022/08/29 02:55:33;;;;;;;3.58;1.25;;;;;;;27.45;48.06;98752.28;2093739;27;20531;-47
2022/08/29 02:56:35;;;;;;;1.55;1.35;;;;;;;27.44;48.57;98753.34;2095247;27;20043;-48
2022/08/29 02:57:38;;;;;;;1.88;1.35;;;;;;;27.48;48.15;98751.75;2093973;27;20052;-46
2022/08/29 02:58:40;;;;;;;2.00;1.40;;;;;;;27.47;48.34;98763.72;2094236;28;20048;-48
2022/08/29 02:59:40;;;;;;;4.60;1.33;;;;;;;27.47;48.23;98750.09;2092828;28;20545;-48
2022/08/29 03:00:43;;;;;;;2.33;1.42;;;;;;;27.47;48.15;98750.94;2096224;27;20126;-44
2022/08/29 03:01:43;;;;;;;2.15;1.10;;;;;;;27.47;48.03;98756.38;2099396;28;20040;-49
2022/08/29 03:02:46;;;;;;;2.90;1.15;;;;;;;27.46;48.20;98754.72;2095918;27;20055;-46
2022/08/29 03:03:49;;;;;;;1.38;1.00;;;;;;;27.43;48.27;98749.78;2098844;27;20166;-49
2022/08/29 03:04:51;;;;;;;1.83;1.27;;;;;;;27.43;48.27;98748.97;2094469;28;20047;-48
2022/08/29 03:05:53;;;;;;;4.00;1.40;;;;;;;27.42;48.27;98750.06;2095589;28;20059;-46
2022/08/29 03:06:55;;;;;;;1.50;1.10;;;;;;;27.40;48.43;98748.41;2095458;28;20040;-48
2022/08/29 03:07:57;;;;;;;2.72;1.08;;;;;;;27.42;48.16;98750.06;2097553;27;20781;-48
2022/08/29 03:08:59;;;;;;;1.27;1.17;;;;;;;27.42;47.94;98747.34;2096395;28;20055;-45
2022/08/29 03:10:00;;;;;;;1.25;1.15;;;;;;;27.40;47.95;98751.13;2096543;28;20047;-47
2022/08/29 03:11:02;;;;;;;3.65;1.00;;;;;;;27.40;48.17;98744.88;2098449;28;21097;-47
2022/08/29 03:12:04;;;;;;;2.95;1.38;;;;;;;27.37;48.22;98748.13;2096902;28;20047;-46
2022/08/29 03:13:07;;;;;;;4.13;1.63;;;;;;;27.37;48.06;98746.19;2096643;27;20052;-47
2022/08/29 03:14:08;;;;;;;5.00;1.42;;;;;;;27.38;48.17;98747.84;2098072;27;20603;-49
2022/08/29 03:15:11;;;;;;;2.13;0.95;;;;;;;27.38;48.25;98742.38;2098219;28;20062;-49
2022/08/29 03:16:11;;;;;;;1.77;1.13;;;;;;;27.39;48.20;98743.25;2095348;28;20058;-45
2022/08/29 03:17:13;;;;;;;0.93;0.82;;;;;;;27.38;48.01;98749.75;2092363;28;20068;-49
2022/08/29 03:18:14;;;;;;;4.10;1.13;;;;;;;27.39;47.86;98744.06;2086455;28;20055;-49
2022/08/29 03:19:17;;;;;;;1.70;1.45;;;;;;;27.37;48.15;98743.47;2085300;28;20705;-47
2022/08/29 03:20:19;;;;;;;4.75;1.10;;;;;;;27.38;48.01;98742.38;2089203;28;20044;-46
2022/08/29 03:21:26;;;;;;;2.30;2.10;;;;;;;27.37;48.15;98746.19;2088654;28;20102;-44
2022/08/29 03:22:27;;;;;;;2.25;2.00;;;;;;;27.35;47.89;98745.63;2090725;28;20056;-48
2022/08/29 03:23:29;;;;;;;1.48;1.38;;;;;;;27.38;47.80;98741.56;2091176;28;20051;-50
2022/08/29 03:24:30;;;;;;;1.80;1.23;;;;;;;27.34;47.83;98741.28;2089454;28;20047;-48
2022/08/29 03:25:32;;;;;;;1.05;1.05;;;;;;;27.35;48.11;98742.09;2094432;27;20059;-48
2022/08/29 03:26:33;;;;;;;2.47;1.20;;;;;;;27.36;47.82;98743.75;2093734;28;20066;-51
2022/08/29 03:27:35;;;;;;;2.75;1.40;;;;;;;27.36;47.87;98744.56;2090489;28;20510;-46
2022/08/29 03:28:37;;;;;;;1.98;1.25;;;;;;;27.37;47.89;98754.38;2085442;28;20093;-50
2022/08/29 03:29:39;;;;;;;1.45;1.23;;;;;;;27.37;47.93;98746.19;2089758;28;20064;-48
2022/08/29 03:30:40;;;;;;;2.55;1.20;;;;;;;27.36;47.81;98750.03;2077943;28;20166;-49
2022/08/29 03:31:42;;;;;;;1.33;1.10;;;;;;;27.36;47.79;98754.66;2086522;28;21998;-47
2022/08/29 03:32:44;;;;;;;1.80;1.02;;;;;;;27.36;48.16;98751.94;2086473;28;20056;-48
2022/08/29 03:33:46;;;;;;;2.35;0.88;;;;;;;27.35;47.98;98750.25;2087479;28;20414;-50
2022/08/29 03:34:46;;;;;;;2.83;0.90;;;;;;;27.35;47.90;98753.81;2091057;28;20445;-48
2022/08/29 03:35:48;;;;;;;1.92;1.10;;;;;;;27.36;48.03;98752.75;2094648;28;20054;-47
2022/08/29 03:36:50;;;;;;;2.05;1.05;;;;;;;27.37;47.96;98753.56;2092881;28;20528;-49
2022/08/29 03:37:54;;;;;;;3.33;1.38;;;;;;;27.35;47.68;98753.81;2095872;28;20379;-49
2022/08/29 03:38:55;;;;;;;2.53;1.58;;;;;;;27.33;47.79;98747.81;2097221;28;20040;-44
2022/08/29 03:39:56;;;;;;;1.42;1.33;;;;;;;27.33;48.25;98750.53;2094203;28;20044;-47
2022/08/29 03:40:58;;;;;;;2.67;1.40;;;;;;;27.32;47.85;98750.78;2095065;28;20055;-51
2022/08/29 03:41:59;;;;;;;2.22;0.90;;;;;;;27.34;47.83;98752.16;2093142;28;20051;-47
2022/08/29 03:43:02;;;;;;;2.30;1.23;;;;;;;27.33;47.89;98752.41;2099445;28;21007;-48
2022/08/29 03:44:04;;;;;;;4.10;1.50;;;;;;;27.31;47.89;98752.69;2094453;28;20044;-47
2022/08/29 03:45:10;;;;;;;3.67;1.30;;;;;;;27.29;47.84;98751.31;2094099;28;20105;-50
2022/08/29 03:46:12;;;;;;;3.42;1.40;;;;;;;27.32;47.79;98750.78;2093522;28;20056;-45
2022/08/29 03:47:13;;;;;;;2.47;1.20;;;;;;;27.29;48.17;98751.31;2095996;28;20044;-47
2022/08/29 03:48:15;;;;;;;1.58;0.98;;;;;;;27.30;48.23;98751.06;2092504;28;20120;-46
2022/08/29 03:49:16;;;;;;;2.00;1.20;;;;;;;27.32;47.81;98748.06;2098683;28;20051;-45
2022/08/29 03:50:19;;;;;;;1.77;1.25;;;;;;;27.29;47.87;98752.13;2093816;28;20055;-47
2022/08/29 03:51:21;;;;;;;2.55;1.40;;;;;;;27.29;47.94;98748.56;2098956;28;20456;-45
2022/08/29 03:52:23;;;;;;;2.63;1.35;;;;;;;27.29;47.84;98751.31;2093090;28;20052;-51
2022/08/29 03:53:24;;;;;;;2.47;1.45;;;;;;;27.29;47.81;98751.31;2096313;28;20805;-46
2022/08/29 03:54:26;;;;;;;1.38;1.10;;;;;;;27.30;47.75;98751.06;2092239;28;20051;-48
2022/08/29 03:55:27;;;;;;;3.00;1.52;;;;;;;27.29;47.77;98746.66;2092944;28;20943;-45
2022/08/29 03:56:29;;;;;;;3.75;1.73;;;;;;;27.27;47.81;98746.09;2096969;28;20044;-46
2022/08/29 03:57:31;;;;;;;3.03;1.38;;;;;;;27.29;47.81;98748.56;2101687;28;20052;-49
2022/08/29 03:58:34;;;;;;;1.88;1.58;;;;;;;27.29;48.17;98754.03;2100589;28;20052;-51
2022/08/29 03:59:36;;;;;;;1.65;1.42;;;;;;;27.29;47.79;98748.56;2101589;28;20058;-46
2022/08/29 04:00:38;;;;;;;3.60;1.20;;;;;;;27.27;48.06;98751.53;2091538;28;20153;-47
2022/08/29 04:01:39;;;;;;;2.45;1.20;;;;;;;27.30;48.27;98753.78;2096106;28;20423;-47
2022/08/29 04:02:41;;;;;;;2.10;1.35;;;;;;;27.28;47.72;98755.94;2103154;28;20059;-47
2022/08/29 04:03:42;;;;;;;4.65;0.98;;;;;;;27.28;47.76;98753.22;2101978;28;20048;-44
2022/08/29 04:06:04;;;;;;;1.05;0.95;;;;;;;27.23;47.82;98753.16;2097357;28;20036;-47
2022/08/29 04:07:06;;;;;;;3.40;1.42;;;;;;;27.23;47.82;98750.44;2096260;28;20058;-47
2022/08/29 04:08:08;;;;;;;1.40;1.17;;;;;;;27.25;47.71;98756.44;2096623;28;20051;-49
2022/08/29 04:09:09;;;;;;;1.33;0.90;;;;;;;27.25;48.08;98751.00;2092400;28;20135;-46
2022/08/29 04:10:13;;;;;;;2.95;1.25;;;;;;;27.25;47.74;98750.19;2089128;28;20056;-43
2022/08/29 04:11:16;;;;;;;1.33;1.20;;;;;;;27.25;47.76;98747.47;2093205;28;20185;-43
2022/08/29 04:12:17;;;;;;;1.15;0.88;;;;;;;27.25;47.93;98753.72;2093652;28;20055;-44
2022/08/29 04:13:19;;;;;;;3.03;1.23;;;;;;;27.26;48.08;98760.00;2095747;28;20127;-43
2022/08/29 04:14:20;;;;;;;1.23;1.02;;;;;;;27.27;48.30;98757.00;2093772;27;20077;-45
2022/08/29 04:15:25;;;;;;;3.35;1.30;;;;;;;27.26;47.82;98755.34;2097039;28;20134;-44
2022/08/29 04:16:28;;;;;;;3.55;1.10;;;;;;;27.27;48.33;98754.28;2097117;28;20047;-44
2022/08/29 04:17:30;;;;;;;1.98;1.10;;;;;;;27.25;48.09;98758.34;2096415;28;20055;-43
2022/08/29 04:18:31;;;;;;;3.70;1.33;;;;;;;27.26;47.96;98755.34;2095503;28;20052;-44
2022/08/29 04:19:34;;;;;;;1.30;1.20;;;;;;;27.27;48.25;98757.00;2096762;28;20454;-44
2022/08/29 04:20:37;;;;;;;2.85;1.30;;;;;;;27.28;48.10;98752.41;2097724;28;20653;-43
2022/08/29 04:21:39;;;;;;;2.72;1.40;;;;;;;27.26;48.03;98760.81;2096427;28;20056;-43
2022/08/29 04:22:41;;;;;;;3.20;1.00;;;;;;;27.26;48.10;98758.09;2096607;27;20220;-45
2022/08/29 04:23:44;;;;;;;5.03;1.40;;;;;;;27.24;48.10;98760.22;2099350;28;20483;-45
2022/08/29 04:24:45;;;;;;;1.50;1.35;;;;;;;27.24;47.88;98768.41;2095718;28;20079;-44
2022/08/29 04:25:47;;;;;;;2.88;1.52;;;;;;;27.24;47.72;98764.88;2102523;28;20052;-45
2022/08/29 04:26:48;;;;;;;3.88;1.67;;;;;;;27.24;47.86;98770.31;2101046;28;20059;-43
2022/08/29 04:27:50;;;;;;;2.75;1.15;;;;;;;27.22;48.04;98762.41;2096308;28;20670;-44
2022/08/29 04:28:51;;;;;;;6.90;1.77;;;;;;;27.23;47.92;98765.97;2096412;27;20047;-43
2022/08/29 04:29:53;;;;;;;2.90;0.98;;;;;;;27.23;47.97;98766.78;2096950;28;20047;-45
2022/08/29 04:30:55;;;;;;;1.83;1.20;;;;;;;27.23;47.91;98765.97;2096780;27;20044;-46
2022/08/29 04:31:57;;;;;;;5.13;1.65;;;;;;;27.23;48.07;98771.41;2097768;28;20046;-43
2022/08/29 04:32:58;;;;;;;6.80;1.40;;;;;;;27.24;47.77;98770.31;2098386;28;20091;-44
2022/08/29 04:34:00;;;;;;;1.05;0.90;;;;;;;27.25;48.12;98774.69;2095701;28;20048;-43
2022/08/29 04:35:01;;;;;;;1.85;1.63;;;;;;;27.22;47.82;98775.19;2096448;28;20059;-45
2022/08/29 04:36:05;;;;;;;1.80;1.02;;;;;;;27.22;47.98;98780.63;2098051;28;20052;-43
2022/08/29 04:37:06;;;;;;;2.20;1.27;;;;;;;27.21;48.00;98773.56;2095122;27;20047;-43
2022/08/29 04:38:08;;;;;;;1.48;1.15;;;;;;;27.20;47.91;98778.19;2097412;28;20063;-44
2022/08/29 04:39:10;;;;;;;1.30;1.00;;;;;;;27.21;47.72;98779.00;2086764;28;20573;-50
2022/08/29 04:40:15;;;;;;;4.82;1.65;;;;;;;27.23;47.96;98779.56;2087652;28;20059;-44
2022/08/29 04:41:16;;;;;;;4.22;1.45;;;;;;;27.23;47.75;98788.56;2091287;28;20128;-43
2022/08/29 04:42:18;;;;;;;1.98;1.70;;;;;;;27.21;47.86;98792.63;2087763;28;20444;-44
2022/08/29 04:43:19;;;;;;;5.38;1.30;;;;;;;27.21;47.82;98793.44;2087966;28;20121;-44
2022/08/29 04:44:21;;;;;;;1.95;1.20;;;;;;;27.23;47.70;98790.47;2088897;28;20475;-44
2022/08/29 04:45:22;;;;;;;2.95;1.10;;;;;;;27.22;48.05;98792.38;2088490;28;20058;-44
2022/08/29 04:46:25;;;;;;;3.10;1.33;;;;;;;27.22;47.64;98786.06;2088879;28;20475;-43
2022/08/29 04:47:27;;;;;;;1.42;1.30;;;;;;;27.22;47.85;98786.91;2088802;28;20102;-43
2022/08/29 04:48:29;;;;;;;2.63;1.52;;;;;;;27.21;48.12;98785.25;2088825;28;20083;-44
2022/08/29 04:49:30;;;;;;;1.58;1.40;;;;;;;27.20;47.79;98788.25;2089374;28;20044;-46
2022/08/29 04:50:32;;;;;;;2.55;1.17;;;;;;;27.21;47.63;98790.72;2088502;28;20049;-44
2022/08/29 04:51:34;;;;;;;1.75;1.00;;;;;;;27.23;47.92;98794.00;2087380;28;20059;-45
2022/08/29 04:52:36;;;;;;;2.17;1.83;;;;;;;27.21;47.71;98790.72;2087166;28;20055;-43
2022/08/29 04:53:37;;;;;;;2.55;1.00;;;;;;;27.23;47.60;98791.28;2088361;28;20072;-44
2022/08/29 04:54:39;;;;;;;2.88;1.10;;;;;;;27.22;47.48;98791.53;2088453;28;20048;-44
2022/08/29 04:55:39;;;;;;;1.83;1.00;;;;;;;27.22;47.53;98797.81;2093455;28;20053;-44
2022/08/29 04:56:42;;;;;;;1.98;0.95;;;;;;;27.22;48.00;98794.25;2092536;28;20054;-45
2022/08/29 04:57:43;;;;;;;6.13;1.58;;;;;;;27.18;47.53;98794.75;2086030;28;20122;-44
2022/08/29 04:58:46;;;;;;;1.92;1.10;;;;;;;27.21;47.72;98798.06;2086466;28;20498;-43
2022/08/29 04:59:46;;;;;;;1.52;1.25;;;;;;;27.19;47.85;98801.03;2089716;28;20048;-45